sensor_id;sensor_type;location;lat;lon;timestamp;pressure;altitude;pressure_sealevel;temperature;humidity
41044;BME280;51680;49.806;18.774;2023-02-13T00:01:14;99367.66;;;5.18;81.98
41044;BME280;51680;49.806;18.774;2023-02-13T00:04:18;99366.69;;;5.25;81.50
41044;BME280;51680;49.806;18.774;2023-02-13T00:07:22;99364.09;;;5.25;82.21
41044;BME280;51680;49.806;18.774;2023-02-13T00:10:24;99364.88;;;5.33;81.77
41044;BME280;51680;49.806;18.774;2023-02-13T00:13:25;99358.81;;;5.36;81.81
41044;BME280;51680;49.806;18.774;2023-02-13T00:16:27;99357.91;;;5.38;81.37
41044;BME280;51680;49.806;18.774;2023-02-13T00:19:31;99359.69;;;5.36;81.69
41044;BME280;51680;49.806;18.774;2023-02-13T00:22:34;99364.88;;;5.33;81.74
41044;BME280;51680;49.806;18.774;2023-02-13T00:25:37;99364.03;;;5.31;81.20
41044;BME280;51680;49.806;18.774;2023-02-13T00:28:39;99354.53;;;5.32;81.76
41044;BME280;51680;49.806;18.774;2023-02-13T00:31:41;99358.84;;;5.31;81.33
41044;BME280;51680;49.806;18.774;2023-02-13T00:34:44;99355.38;;;5.34;81.13
41044;BME280;51680;49.806;18.774;2023-02-13T00:37:45;99364.81;;;5.38;81.19
41044;BME280;51680;49.806;18.774;2023-02-13T00:40:48;99352.66;;;5.43;81.58
41044;BME280;51680;49.806;18.774;2023-02-13T00:43:50;99350.00;;;5.50;80.92
41044;BME280;51680;49.806;18.774;2023-02-13T00:46:51;99353.34;;;5.58;80.93
41044;BME280;51680;49.806;18.774;2023-02-13T00:49:54;99346.38;;;5.63;80.92
41044;BME280;51680;49.806;18.774;2023-02-13T00:52:56;99344.56;;;5.68;80.31
41044;BME280;51680;49.806;18.774;2023-02-13T00:55:58;99348.81;;;5.75;80.08
41044;BME280;51680;49.806;18.774;2023-02-13T00:59:00;99344.47;;;5.76;80.84
41044;BME280;51680;49.806;18.774;2023-02-13T01:02:02;99347.91;;;5.79;80.59
41044;BME280;51680;49.806;18.774;2023-02-13T01:05:07;99334.09;;;5.77;80.60
41044;BME280;51680;49.806;18.774;2023-02-13T01:08:09;99337.47;;;5.85;80.31
41044;BME280;51680;49.806;18.774;2023-02-13T01:11:11;99339.09;;;5.91;80.13
41044;BME280;51680;49.806;18.774;2023-02-13T01:14:13;99327.13;;;5.85;80.37
41044;BME280;51680;49.806;18.774;2023-02-13T01:17:15;99326.22;;;5.86;79.84
41044;BME280;51680;49.806;18.774;2023-02-13T01:20:18;99339.16;;;5.88;79.83
41044;BME280;51680;49.806;18.774;2023-02-13T01:23:20;99335.69;;;5.90;80.03
41044;BME280;51680;49.806;18.774;2023-02-13T01:26:23;99339.97;;;5.91;80.17
41044;BME280;51680;49.806;18.774;2023-02-13T01:29:25;99326.97;;;5.94;80.13
41044;BME280;51680;49.806;18.774;2023-02-13T01:32:27;99314.84;;;5.96;80.12
41044;BME280;51680;49.806;18.774;2023-02-13T01:35:30;99308.72;;;6.02;79.28
41044;BME280;51680;49.806;18.774;2023-02-13T01:38:32;99307.06;;;5.96;79.78
41044;BME280;51680;49.806;18.774;2023-02-13T01:41:34;99307.09;;;5.95;79.75
41044;BME280;51680;49.806;18.774;2023-02-13T01:44:47;99307.88;;;6.00;79.92
41044;BME280;51680;49.806;18.774;2023-02-13T01:47:52;99312.13;;;6.05;79.22
41044;BME280;51680;49.806;18.774;2023-02-13T01:51:02;99293.16;;;6.02;79.58
41044;BME280;51680;49.806;18.774;2023-02-13T01:54:07;99307.81;;;6.04;79.99
41044;BME280;51680;49.806;18.774;2023-02-13T01:57:15;99312.00;;;6.11;79.53
41044;BME280;51680;49.806;18.774;2023-02-13T02:00:19;99304.19;;;6.14;79.77
41044;BME280;51680;49.806;18.774;2023-02-13T02:03:25;99304.13;;;6.17;79.05
41044;BME280;51680;49.806;18.774;2023-02-13T02:06:35;99321.34;;;6.21;79.11
41044;BME280;51680;49.806;18.774;2023-02-13T02:09:41;99315.28;;;6.24;78.73
41044;BME280;51680;49.806;18.774;2023-02-13T02:12:46;99305.91;;;6.15;78.41
41044;BME280;51680;49.806;18.774;2023-02-13T02:15:52;99302.50;;;6.13;78.65
41044;BME280;51680;49.806;18.774;2023-02-13T02:18:54;99296.31;;;6.22;79.02
41044;BME280;51680;49.806;18.774;2023-02-13T02:22:15;99304.00;;;6.26;78.71
41044;BME280;51680;49.806;18.774;2023-02-13T02:25:46;99293.59;;;6.29;78.12
41044;BME280;51680;49.806;18.774;2023-02-13T02:29:11;99290.22;;;6.23;78.23
41044;BME280;51680;49.806;18.774;2023-02-13T02:32:32;99286.94;;;6.13;78.57
41044;BME280;51680;49.806;18.774;2023-02-13T02:35:44;99290.31;;;6.18;78.81
41044;BME280;51680;49.806;18.774;2023-02-13T02:38:59;99293.63;;;6.26;78.16
41044;BME280;51680;49.806;18.774;2023-02-13T02:42:11;99286.63;;;6.31;78.18
41044;BME280;51680;49.806;18.774;2023-02-13T02:45:21;99292.56;;;6.38;77.68
41044;BME280;51680;49.806;18.774;2023-02-13T02:48:29;99286.72;;;6.25;78.04
41044;BME280;51680;49.806;18.774;2023-02-13T02:51:59;99286.97;;;6.10;78.31
41044;BME280;51680;49.806;18.774;2023-02-13T02:55:09;99281.78;;;6.10;78.15
41044;BME280;51680;49.806;18.774;2023-02-13T02:58:30;99285.16;;;6.15;78.10
41044;BME280;51680;49.806;18.774;2023-02-13T03:01:52;99286.81;;;6.21;78.42
41044;BME280;51680;49.806;18.774;2023-02-13T03:05:18;99294.50;;;6.27;77.75
41044;BME280;51680;49.806;18.774;2023-02-13T03:08:42;99297.97;;;6.26;77.90
41044;BME280;51680;49.806;18.774;2023-02-13T03:12:02;99308.28;;;6.29;78.20
41044;BME280;51680;49.806;18.774;2023-02-13T03:15:24;99300.44;;;6.33;78.10
41044;BME280;51680;49.806;18.774;2023-02-13T03:18:28;99294.50;;;6.27;77.85
41044;BME280;51680;49.806;18.774;2023-02-13T03:21:54;99306.56;;;6.28;78.04
41044;BME280;51680;49.806;18.774;2023-02-13T03:25:20;99305.66;;;6.30;78.12
41044;BME280;51680;49.806;18.774;2023-02-13T03:28:34;99298.75;;;6.31;78.47
41044;BME280;51680;49.806;18.774;2023-02-13T03:32:01;99313.47;;;6.29;78.43
41044;BME280;51680;49.806;18.774;2023-02-13T03:35:25;99309.25;;;6.23;78.73
41044;BME280;51680;49.806;18.774;2023-02-13T03:38:54;99314.47;;;6.20;79.73
41044;BME280;51680;49.806;18.774;2023-02-13T03:42:00;99311.88;;;6.20;79.43
41044;BME280;51680;49.806;18.774;2023-02-13T03:45:08;99304.13;;;6.19;79.74
41044;BME280;51680;49.806;18.774;2023-02-13T03:48:31;99312.00;;;6.13;80.29
41044;BME280;51680;49.806;18.774;2023-02-13T03:51:57;99305.13;;;6.10;80.20
41044;BME280;51680;49.806;18.774;2023-02-13T03:55:04;99300.06;;;6.01;80.69
41044;BME280;51680;49.806;18.774;2023-02-13T03:58:28;99296.78;;;5.92;81.52
41044;BME280;51680;49.806;18.774;2023-02-13T04:01:58;99302.91;;;5.86;82.06
41044;BME280;51680;49.806;18.774;2023-02-13T04:05:07;99302.09;;;5.80;83.08
41044;BME280;51680;49.806;18.774;2023-02-13T04:08:10;99303.84;;;5.81;83.17
41044;BME280;51680;49.806;18.774;2023-02-13T04:11:17;99299.53;;;5.78;83.36
41044;BME280;51680;49.806;18.774;2023-02-13T04:14:24;99308.19;;;5.77;83.45
41044;BME280;51680;49.806;18.774;2023-02-13T04:17:31;99303.00;;;5.77;83.39
41044;BME280;51680;49.806;18.774;2023-02-13T04:20:34;99303.84;;;5.79;83.63
41044;BME280;51680;49.806;18.774;2023-02-13T04:23:35;99299.50;;;5.84;84.54
41044;BME280;51680;49.806;18.774;2023-02-13T04:26:40;99304.72;;;5.81;84.47
41044;BME280;51680;49.806;18.774;2023-02-13T04:29:43;99305.56;;;5.82;83.82
41044;BME280;51680;49.806;18.774;2023-02-13T04:32:45;99296.94;;;5.77;84.12
41044;BME280;51680;49.806;18.774;2023-02-13T04:35:46;99303.81;;;5.84;83.56
41044;BME280;51680;49.806;18.774;2023-02-13T04:38:49;99303.84;;;5.81;83.28
41044;BME280;51680;49.806;18.774;2023-02-13T04:41:52;99307.28;;;5.80;84.09
41044;BME280;51680;49.806;18.774;2023-02-13T04:44:53;99313.28;;;5.85;84.16
41044;BME280;51680;49.806;18.774;2023-02-13T04:47:56;99311.63;;;5.79;84.35
41044;BME280;51680;49.806;18.774;2023-02-13T04:50:58;99312.44;;;5.84;84.24
41044;BME280;51680;49.806;18.774;2023-02-13T04:53:59;99316.84;;;5.76;85.19
41044;BME280;51680;49.806;18.774;2023-02-13T04:57:02;99315.94;;;5.79;84.26
41044;BME280;51680;49.806;18.774;2023-02-13T05:00:05;99315.06;;;5.81;84.77
41044;BME280;51680;49.806;18.774;2023-02-13T05:03:09;99319.34;;;5.85;84.06
41044;BME280;51680;49.806;18.774;2023-02-13T05:06:12;99314.06;;;5.90;84.08
41044;BME280;51680;49.806;18.774;2023-02-13T05:09:14;99313.06;;;5.98;84.12
41044;BME280;51680;49.806;18.774;2023-02-13T05:12:17;99315.72;;;5.95;83.68
41044;BME280;51680;49.806;18.774;2023-02-13T05:15:19;99308.09;;;5.86;84.53
41044;BME280;51680;49.806;18.774;2023-02-13T05:18:22;99310.88;;;5.70;84.77
41044;BME280;51680;49.806;18.774;2023-02-13T05:21:23;99298.94;;;5.61;85.49
41044;BME280;51680;49.806;18.774;2023-02-13T05:24:42;99299.88;;;5.54;85.28
41044;BME280;51680;49.806;18.774;2023-02-13T05:27:45;99304.16;;;5.55;85.96
41044;BME280;51680;49.806;18.774;2023-02-13T05:30:47;99306.81;;;5.54;86.95
41044;BME280;51680;49.806;18.774;2023-02-13T05:33:49;99305.88;;;5.58;86.18
41044;BME280;51680;49.806;18.774;2023-02-13T05:36:51;99311.00;;;5.61;86.57
41044;BME280;51680;49.806;18.774;2023-02-13T05:39:53;99306.63;;;5.64;85.71
41044;BME280;51680;49.806;18.774;2023-02-13T05:42:56;99313.56;;;5.65;85.72
41044;BME280;51680;49.806;18.774;2023-02-13T05:46:02;99309.22;;;5.64;86.26
41044;BME280;51680;49.806;18.774;2023-02-13T05:49:23;99308.38;;;5.65;85.92
41044;BME280;51680;49.806;18.774;2023-02-13T05:52:25;99308.41;;;5.62;85.97
41044;BME280;51680;49.806;18.774;2023-02-13T05:55:27;99303.97;;;5.70;85.33
41044;BME280;51680;49.806;18.774;2023-02-13T05:58:30;99303.13;;;5.68;85.74
41044;BME280;51680;49.806;18.774;2023-02-13T06:01:32;99305.81;;;5.62;85.70
41044;BME280;51680;49.806;18.774;2023-02-13T06:04:33;99304.16;;;5.55;86.48
41044;BME280;51680;49.806;18.774;2023-02-13T06:07:35;99303.34;;;5.53;85.85
41044;BME280;51680;49.806;18.774;2023-02-13T06:10:37;99295.47;;;5.59;86.06
41044;BME280;51680;49.806;18.774;2023-02-13T06:13:40;99297.13;;;5.65;85.67
41044;BME280;51680;49.806;18.774;2023-02-13T06:16:42;99299.72;;;5.66;85.75
41044;BME280;51680;49.806;18.774;2023-02-13T06:19:44;99303.13;;;5.68;85.66
41044;BME280;51680;49.806;18.774;2023-02-13T06:22:47;99312.69;;;5.63;85.96
41044;BME280;51680;49.806;18.774;2023-02-13T06:25:48;99304.91;;;5.66;85.49
41044;BME280;51680;49.806;18.774;2023-02-13T06:28:52;99311.81;;;5.64;86.00
41044;BME280;51680;49.806;18.774;2023-02-13T06:31:53;99303.28;;;5.58;86.41
41044;BME280;51680;49.806;18.774;2023-02-13T06:34:55;99305.00;;;5.60;86.77
41044;BME280;51680;49.806;18.774;2023-02-13T06:37:57;99306.59;;;5.67;85.87
41044;BME280;51680;49.806;18.774;2023-02-13T06:41:00;99311.78;;;5.69;86.08
41044;BME280;51680;49.806;18.774;2023-02-13T06:44:03;99311.75;;;5.70;85.70
41044;BME280;51680;49.806;18.774;2023-02-13T06:47:05;99313.47;;;5.71;86.39
41044;BME280;51680;49.806;18.774;2023-02-13T06:50:07;99304.78;;;5.75;86.05
41044;BME280;51680;49.806;18.774;2023-02-13T06:53:09;99301.22;;;5.82;85.37
41044;BME280;51680;49.806;18.774;2023-02-13T06:56:10;99304.50;;;5.93;85.31
41044;BME280;51680;49.806;18.774;2023-02-13T06:59:13;99310.44;;;6.01;85.23
41044;BME280;51680;49.806;18.774;2023-02-13T07:02:15;99304.25;;;6.10;84.64
41044;BME280;51680;49.806;18.774;2023-02-13T07:05:17;99307.50;;;6.22;84.06
41044;BME280;51680;49.806;18.774;2023-02-13T07:08:19;99309.94;;;6.33;84.10
41044;BME280;51680;49.806;18.774;2023-02-13T07:11:23;99312.41;;;6.40;83.04
41044;BME280;51680;49.806;18.774;2023-02-13T07:14:27;99301.91;;;6.48;83.14
41044;BME280;51680;49.806;18.774;2023-02-13T07:17:29;99311.22;;;6.58;82.85
41044;BME280;51680;49.806;18.774;2023-02-13T07:20:31;99302.44;;;6.66;82.84
41044;BME280;51680;49.806;18.774;2023-02-13T07:23:33;99301.56;;;6.67;82.39
41044;BME280;51680;49.806;18.774;2023-02-13T07:26:35;99313.69;;;6.65;82.34
41044;BME280;51680;49.806;18.774;2023-02-13T07:29:38;99317.00;;;6.73;82.53
41044;BME280;51680;49.806;18.774;2023-02-13T07:32:40;99316.13;;;6.74;82.25
41044;BME280;51680;49.806;18.774;2023-02-13T07:35:45;99318.69;;;6.77;82.31
41044;BME280;51680;49.806;18.774;2023-02-13T07:38:46;99322.84;;;6.86;82.16
41044;BME280;51680;49.806;18.774;2023-02-13T07:41:49;99316.63;;;6.94;81.93
41044;BME280;51680;49.806;18.774;2023-02-13T07:44:52;99318.06;;;7.09;81.72
41044;BME280;51680;49.806;18.774;2023-02-13T07:47:54;99314.50;;;7.16;80.75
41044;BME280;51680;49.806;18.774;2023-02-13T07:50:59;99328.03;;;7.30;80.32
41044;BME280;51680;49.806;18.774;2023-02-13T07:54:01;99328.75;;;7.38;80.73
41044;BME280;51680;49.806;18.774;2023-02-13T07:57:03;99328.56;;;7.47;80.13
41044;BME280;51680;49.806;18.774;2023-02-13T08:00:07;99325.75;;;7.57;79.58
41044;BME280;51680;49.806;18.774;2023-02-13T08:03:12;99329.00;;;7.67;79.72
41044;BME280;51680;49.806;18.774;2023-02-13T08:06:13;99318.44;;;7.74;79.40
41044;BME280;51680;49.806;18.774;2023-02-13T08:09:17;99311.38;;;7.79;79.13
41044;BME280;51680;49.806;18.774;2023-02-13T08:12:37;99302.56;;;7.86;79.59
41044;BME280;51680;49.806;18.774;2023-02-13T08:15:40;99307.56;;;7.95;78.96
41044;BME280;51680;49.806;18.774;2023-02-13T08:18:43;99306.44;;;8.07;78.80
41044;BME280;51680;49.806;18.774;2023-02-13T08:21:45;99315.63;;;8.21;78.12
41044;BME280;51680;49.806;18.774;2023-02-13T08:24:47;99310.97;;;8.35;77.83
41044;BME280;51680;49.806;18.774;2023-02-13T08:27:48;99314.16;;;8.46;77.24
41044;BME280;51680;49.806;18.774;2023-02-13T08:30:52;99321.81;;;8.52;77.04
41044;BME280;51680;49.806;18.774;2023-02-13T08:33:55;99309.63;;;8.54;76.80
41044;BME280;51680;49.806;18.774;2023-02-13T08:36:57;99302.69;;;8.53;76.83
41044;BME280;51680;49.806;18.774;2023-02-13T08:39:58;99302.59;;;8.56;76.27
41044;BME280;51680;49.806;18.774;2023-02-13T08:43:00;99306.78;;;8.63;76.22
41044;BME280;51680;49.806;18.774;2023-02-13T08:46:04;99304.72;;;8.76;76.03
41044;BME280;51680;49.806;18.774;2023-02-13T08:49:06;99308.56;;;8.93;75.06
41044;BME280;51680;49.806;18.774;2023-02-13T08:52:07;99296.91;;;9.38;74.90
41044;BME280;51680;49.806;18.774;2023-02-13T08:55:09;99304.41;;;9.76;73.20
41044;BME280;51680;49.806;18.774;2023-02-13T08:58:11;99298.44;;;10.00;72.01
41044;BME280;51680;49.806;18.774;2023-02-13T09:01:14;99296.00;;;10.23;72.04
41044;BME280;51680;49.806;18.774;2023-02-13T09:04:16;99296.13;;;10.72;70.59
41044;BME280;51680;49.806;18.774;2023-02-13T09:07:19;99298.13;;;11.13;69.52
41044;BME280;51680;49.806;18.774;2023-02-13T09:10:21;99302.81;;;11.28;68.87
41044;BME280;51680;49.806;18.774;2023-02-13T09:13:23;99309.88;;;11.26;68.47
41044;BME280;51680;49.806;18.774;2023-02-13T09:16:26;99299.03;;;11.37;68.04
41044;BME280;51680;49.806;18.774;2023-02-13T09:19:27;99294.34;;;11.45;67.41
41044;BME280;51680;49.806;18.774;2023-02-13T09:22:29;99296.66;;;11.52;66.79
41044;BME280;51680;49.806;18.774;2023-02-13T09:25:31;99294.72;;;12.03;66.84
41044;BME280;51680;49.806;18.774;2023-02-13T09:28:33;99292.88;;;12.48;64.82
41044;BME280;51680;49.806;18.774;2023-02-13T09:31:37;99293.56;;;12.93;64.11
41044;BME280;51680;49.806;18.774;2023-02-13T09:34:38;99295.59;;;13.27;63.00
41044;BME280;51680;49.806;18.774;2023-02-13T09:37:40;99288.78;;;13.61;61.88
41044;BME280;51680;49.806;18.774;2023-02-13T09:40:44;99283.03;;;13.72;61.23
41044;BME280;51680;49.806;18.774;2023-02-13T09:43:50;99274.16;;;13.56;60.42
41044;BME280;51680;49.806;18.774;2023-02-13T09:46:54;99280.44;;;13.52;61.23
41044;BME280;51680;49.806;18.774;2023-02-13T09:49:58;99277.13;;;14.39;60.31
41044;BME280;51680;49.806;18.774;2023-02-13T09:53:01;99276.69;;;14.99;58.74
41044;BME280;51680;49.806;18.774;2023-02-13T09:56:09;99271.38;;;14.84;54.56
41044;BME280;51680;49.806;18.774;2023-02-13T09:59:26;99280.19;;;14.66;56.15
41044;BME280;51680;49.806;18.774;2023-02-13T10:02:45;99278.09;;;14.89;54.85
41044;BME280;51680;49.806;18.774;2023-02-13T10:05:56;99270.28;;;14.71;55.31
41044;BME280;51680;49.806;18.774;2023-02-13T10:09:07;99278.19;;;14.54;55.26
41044;BME280;51680;49.806;18.774;2023-02-13T10:12:21;99275.19;;;14.26;55.92
41044;BME280;51680;49.806;18.774;2023-02-13T10:15:31;99277.06;;;13.87;57.81
41044;BME280;51680;49.806;18.774;2023-02-13T10:18:45;99272.03;;;13.45;57.18
41044;BME280;51680;49.806;18.774;2023-02-13T10:21:52;99274.84;;;13.02;58.72
41044;BME280;51680;49.806;18.774;2023-02-13T10:24:56;99285.03;;;12.68;60.38
41044;BME280;51680;49.806;18.774;2023-02-13T10:28:05;99281.88;;;12.40;60.52
41044;BME280;51680;49.806;18.774;2023-02-13T10:31:12;99278.91;;;12.06;61.63
41044;BME280;51680;49.806;18.774;2023-02-13T10:34:21;99274.44;;;11.87;61.78
41044;BME280;51680;49.806;18.774;2023-02-13T10:37:27;99275.03;;;11.72;62.49
41044;BME280;51680;49.806;18.774;2023-02-13T10:40:31;99268.91;;;11.48;63.93
41044;BME280;51680;49.806;18.774;2023-02-13T10:43:38;99271.09;;;11.37;64.00
41044;BME280;51680;49.806;18.774;2023-02-13T10:46:56;99268.31;;;11.19;63.80
41044;BME280;51680;49.806;18.774;2023-02-13T10:50:13;99260.53;;;11.17;63.85
41044;BME280;51680;49.806;18.774;2023-02-13T10:53:22;99261.19;;;11.22;64.55
41044;BME280;51680;49.806;18.774;2023-02-13T10:56:36;99260.28;;;11.23;64.76
41044;BME280;51680;49.806;18.774;2023-02-13T10:59:49;99258.69;;;11.19;64.88
41044;BME280;51680;49.806;18.774;2023-02-13T11:02:57;99257.81;;;11.20;65.86
41044;BME280;51680;49.806;18.774;2023-02-13T11:06:05;99247.78;;;11.08;65.28
41044;BME280;51680;49.806;18.774;2023-02-13T11:09:08;99243.22;;;10.90;66.07
41044;BME280;51680;49.806;18.774;2023-02-13T11:12:31;99244.56;;;10.77;65.53
41044;BME280;51680;49.806;18.774;2023-02-13T11:15:33;99246.84;;;10.62;67.28
41044;BME280;51680;49.806;18.774;2023-02-13T11:18:38;99242.69;;;10.56;67.89
41044;BME280;51680;49.806;18.774;2023-02-13T11:21:42;99241.03;;;10.54;67.79
41044;BME280;51680;49.806;18.774;2023-02-13T11:24:51;99227.28;;;10.49;68.44
41044;BME280;51680;49.806;18.774;2023-02-13T11:28:06;99230.31;;;10.61;68.79
41044;BME280;51680;49.806;18.774;2023-02-13T11:31:11;99227.56;;;10.66;68.58
41044;BME280;51680;49.806;18.774;2023-02-13T11:34:22;99235.81;;;10.78;67.98
41044;BME280;51680;49.806;18.774;2023-02-13T11:37:26;99232.09;;;11.08;67.34
41044;BME280;51680;49.806;18.774;2023-02-13T11:40:30;99235.16;;;11.19;67.53
41044;BME280;51680;49.806;18.774;2023-02-13T11:43:35;99232.34;;;11.25;67.02
41044;BME280;51680;49.806;18.774;2023-02-13T11:46:45;99237.31;;;11.08;67.15
41044;BME280;51680;49.806;18.774;2023-02-13T11:49:48;99231.16;;;10.86;67.16
41044;BME280;51680;49.806;18.774;2023-02-13T11:52:57;99217.91;;;10.68;67.63
41044;BME280;51680;49.806;18.774;2023-02-13T11:56:03;99211.25;;;10.59;68.47
41044;BME280;51680;49.806;18.774;2023-02-13T11:59:12;99210.25;;;10.63;68.50
41044;BME280;51680;49.806;18.774;2023-02-13T12:02:17;99205.16;;;10.83;68.37
41044;BME280;51680;49.806;18.774;2023-02-13T12:05:20;99198.69;;;11.16;67.64
41044;BME280;51680;49.806;18.774;2023-02-13T12:08:24;99199.38;;;11.44;66.32
41044;BME280;51680;49.806;18.774;2023-02-13T12:11:47;99204.97;;;11.57;66.38
41044;BME280;51680;49.806;18.774;2023-02-13T12:14:50;99192.72;;;11.57;66.05
41044;BME280;51680;49.806;18.774;2023-02-13T12:18:01;99192.00;;;11.54;65.97
41044;BME280;51680;49.806;18.774;2023-02-13T12:21:10;99192.91;;;11.53;65.79
41044;BME280;51680;49.806;18.774;2023-02-13T12:24:37;99184.75;;;11.39;65.60
41044;BME280;51680;49.806;18.774;2023-02-13T12:27:51;99182.78;;;11.22;66.72
41044;BME280;51680;49.806;18.774;2023-02-13T12:31:21;99182.03;;;11.19;66.98
41044;BME280;51680;49.806;18.774;2023-02-13T12:34:53;99186.41;;;11.18;67.32
41044;BME280;51680;49.806;18.774;2023-02-13T12:38:01;99182.19;;;11.14;68.27
41044;BME280;51680;49.806;18.774;2023-02-13T12:41:24;99184.41;;;11.02;69.26
41044;BME280;51680;49.806;18.774;2023-02-13T12:44:47;99184.88;;;10.90;69.67
41044;BME280;51680;49.806;18.774;2023-02-13T12:48:03;99184.69;;;10.71;70.45
41044;BME280;51680;49.806;18.774;2023-02-13T12:51:21;99186.59;;;10.66;70.80
41044;BME280;51680;49.806;18.774;2023-02-13T12:54:38;99190.44;;;10.56;71.64
41044;BME280;51680;49.806;18.774;2023-02-13T12:57:55;99190.03;;;10.44;72.15
41044;BME280;51680;49.806;18.774;2023-02-13T13:01:05;99195.47;;;10.38;72.00
41044;BME280;51680;49.806;18.774;2023-02-13T13:04:19;99194.91;;;10.28;72.70
41044;BME280;51680;49.806;18.774;2023-02-13T13:07:39;99203.78;;;10.24;73.46
41044;BME280;51680;49.806;18.774;2023-02-13T13:10:55;99203.88;;;10.21;73.29
41044;BME280;51680;49.806;18.774;2023-02-13T13:14:08;99206.25;;;10.01;74.21
41044;BME280;51680;49.806;18.774;2023-02-13T13:17:23;99206.25;;;10.01;74.99
41044;BME280;51680;49.806;18.774;2023-02-13T13:20:40;99195.53;;;9.83;75.46
41044;BME280;51680;49.806;18.774;2023-02-13T13:23:52;99199.06;;;9.82;74.85
41044;BME280;51680;49.806;18.774;2023-02-13T13:26:57;99200.00;;;9.79;73.98
41044;BME280;51680;49.806;18.774;2023-02-13T13:30:22;99209.91;;;9.70;74.81
41044;BME280;51680;49.806;18.774;2023-02-13T13:33:26;99203.81;;;9.69;75.05
41044;BME280;51680;49.806;18.774;2023-02-13T13:36:37;99197.28;;;9.56;75.89
41044;BME280;51680;49.806;18.774;2023-02-13T13:39:47;99198.41;;;9.48;75.72
41044;BME280;51680;49.806;18.774;2023-02-13T13:42:58;99213.16;;;9.49;75.62
41044;BME280;51680;49.806;18.774;2023-02-13T13:46:07;99209.59;;;9.51;75.83
41044;BME280;51680;49.806;18.774;2023-02-13T13:49:19;99207.13;;;9.47;76.11
41044;BME280;51680;49.806;18.774;2023-02-13T13:52:26;99213.38;;;9.41;75.91
41044;BME280;51680;49.806;18.774;2023-02-13T13:58:49;99210.25;;;9.30;76.16
41044;BME280;51680;49.806;18.774;2023-02-13T14:02:26;99208.28;;;9.38;77.39
41044;BME280;51680;49.806;18.774;2023-02-13T14:05:29;99206.47;;;9.40;76.42
41044;BME280;51680;49.806;18.774;2023-02-13T14:09:05;99201.81;;;9.22;78.18
41044;BME280;51680;49.806;18.774;2023-02-13T14:12:36;99205.31;;;9.21;78.19
41044;BME280;51680;49.806;18.774;2023-02-13T14:15:49;99199.50;;;9.12;78.11
41044;BME280;51680;49.806;18.774;2023-02-13T14:18:53;99206.50;;;9.10;77.50
41044;BME280;51680;49.806;18.774;2023-02-13T14:22:29;99209.09;;;9.11;78.31
41044;BME280;51680;49.806;18.774;2023-02-13T14:25:32;99205.56;;;9.12;77.19
41044;BME280;51680;49.806;18.774;2023-02-13T14:28:33;99219.34;;;9.16;77.15
41044;BME280;51680;49.806;18.774;2023-02-13T14:31:37;99202.84;;;9.17;77.30
41044;BME280;51680;49.806;18.774;2023-02-13T14:34:41;99199.41;;;9.15;77.54
41044;BME280;51680;49.806;18.774;2023-02-13T14:37:50;99203.59;;;9.20;77.89
41044;BME280;51680;49.806;18.774;2023-02-13T14:40:52;99201.81;;;9.22;77.44
41044;BME280;51680;49.806;18.774;2023-02-13T14:43:55;99201.59;;;9.28;77.47
41044;BME280;51680;49.806;18.774;2023-02-13T14:46:59;99201.72;;;9.25;77.36
41044;BME280;51680;49.806;18.774;2023-02-13T14:50:03;99199.91;;;9.27;77.44
41044;BME280;51680;49.806;18.774;2023-02-13T14:53:08;99194.09;;;9.19;79.12
41044;BME280;51680;49.806;18.774;2023-02-13T14:56:18;99187.09;;;9.20;77.42
41044;BME280;51680;49.806;18.774;2023-02-13T14:59:25;99179.53;;;9.12;77.58
41044;BME280;51680;49.806;18.774;2023-02-13T15:02:34;99181.50;;;9.04;77.88
41044;BME280;51680;49.806;18.774;2023-02-13T15:05:38;99181.72;;;8.97;78.32
41044;BME280;51680;49.806;18.774;2023-02-13T15:08:46;99178.59;;;8.84;79.06
41044;BME280;51680;49.806;18.774;2023-02-13T15:11:49;99175.22;;;8.82;78.29
41044;BME280;51680;49.806;18.774;2023-02-13T15:14:50;99171.69;;;8.83;78.82
41044;BME280;51680;49.806;18.774;2023-02-13T15:17:53;99175.28;;;8.79;79.04
41044;BME280;51680;49.806;18.774;2023-02-13T15:20:58;99183.13;;;8.78;78.91
41044;BME280;51680;49.806;18.774;2023-02-13T15:24:22;99177.16;;;8.74;79.12
41044;BME280;51680;49.806;18.774;2023-02-13T15:27:26;99172.94;;;8.70;79.13
41044;BME280;51680;49.806;18.774;2023-02-13T15:30:29;99174.78;;;8.67;79.60
41044;BME280;51680;49.806;18.774;2023-02-13T15:33:33;99169.00;;;8.57;79.94
41044;BME280;51680;49.806;18.774;2023-02-13T15:36:48;99172.63;;;8.50;80.32
41044;BME280;51680;49.806;18.774;2023-02-13T15:39:51;99175.19;;;8.52;79.88
41044;BME280;51680;49.806;18.774;2023-02-13T15:42:54;99163.19;;;8.46;80.13
41044;BME280;51680;49.806;18.774;2023-02-13T15:45:59;99162.47;;;8.41;80.36
41044;BME280;51680;49.806;18.774;2023-02-13T15:49:04;99159.09;;;8.38;80.10
41044;BME280;51680;49.806;18.774;2023-02-13T15:52:14;99168.84;;;8.30;80.82
41044;BME280;51680;49.806;18.774;2023-02-13T15:55:23;99166.31;;;8.28;80.63
41044;BME280;51680;49.806;18.774;2023-02-13T15:58:28;99162.81;;;8.29;80.76
41044;BME280;51680;49.806;18.774;2023-02-13T16:01:31;99152.50;;;8.25;80.53
41044;BME280;51680;49.806;18.774;2023-02-13T16:04:34;99158.59;;;8.25;80.67
41044;BME280;51680;49.806;18.774;2023-02-13T16:07:46;99157.69;;;8.26;80.69
41044;BME280;51680;49.806;18.774;2023-02-13T16:10:49;99160.34;;;8.23;80.55
41044;BME280;51680;49.806;18.774;2023-02-13T16:13:56;99160.31;;;8.25;80.41
41044;BME280;51680;49.806;18.774;2023-02-13T16:17:01;99167.31;;;8.23;80.09
41044;BME280;51680;49.806;18.774;2023-02-13T16:20:05;99173.28;;;8.26;80.15
41044;BME280;51680;49.806;18.774;2023-02-13T16:23:15;99175.84;;;8.28;80.47
41044;BME280;51680;49.806;18.774;2023-02-13T16:26:19;99164.78;;;8.18;80.49
41044;BME280;51680;49.806;18.774;2023-02-13T16:29:22;99166.00;;;8.07;80.71
41044;BME280;51680;49.806;18.774;2023-02-13T16:32:27;99167.03;;;8.00;81.04